createdAt,value
2019-04-21T00:02:20.027Z,31.57
2019-04-21T00:04:56.886Z,33.30
2019-04-21T00:07:31.568Z,32.88
2019-04-21T00:10:14.437Z,30.65
2019-04-21T00:12:35.857Z,30.97
2019-04-21T00:15:03.547Z,31.25
2019-04-21T00:17:26.551Z,37.25
2019-04-21T00:20:09.216Z,32.42
2019-04-21T00:22:44.037Z,34.85
2019-04-21T00:25:36.217Z,30.68
2019-04-21T00:28:21.948Z,29.27
2019-04-21T00:30:50.564Z,30.50
2019-04-21T00:33:06.879Z,29.77
2019-04-21T00:35:41.477Z,29.32
2019-04-21T00:38:28.513Z,27.80
2019-04-21T00:41:00.410Z,29.07
2019-04-21T00:43:26.072Z,31.05
2019-04-21T00:45:55.054Z,27.15
2019-04-21T00:48:34.429Z,28.27
2019-04-21T00:54:07.073Z,27.65
2019-04-21T00:56:28.864Z,28.60
2019-04-21T00:59:07.121Z,33.33
2019-04-21T01:01:31.248Z,28.42
2019-04-21T01:04:09.998Z,32.65
2019-04-21T01:06:43.465Z,33.33
2019-04-21T01:09:09.526Z,30.00
2019-04-21T01:11:47.808Z,28.32
2019-04-21T01:14:28.038Z,33.67
2019-04-21T01:16:56.182Z,29.18
2019-04-21T01:19:16.677Z,34.25
2019-04-21T01:21:32.516Z,29.80
2019-04-21T01:24:11.800Z,30.72
2019-04-21T01:26:48.454Z,32.08
2019-04-21T01:29:29.010Z,31.95
2019-04-21T01:32:16.081Z,32.90
2019-04-21T01:34:39.357Z,32.78
2019-04-21T01:37:05.697Z,34.10
2019-04-21T01:39:58.504Z,30.68
2019-04-21T01:42:18.852Z,34.83
2019-04-21T01:44:52.313Z,31.17
2019-04-21T01:47:17.526Z,32.75
2019-04-21T01:49:47.247Z,31.85
2019-04-21T01:52:38.666Z,34.65
2019-04-21T01:55:25.162Z,32.03
2019-04-21T02:00:57.182Z,31.27
2019-04-21T02:08:41.571Z,34.65
2019-04-21T02:11:18.870Z,37.75
2019-04-21T02:13:53.513Z,35.08
2019-04-21T02:16:25.172Z,34.18
2019-04-21T02:18:52.601Z,34.90
2019-04-21T02:21:21.786Z,38.42
2019-04-21T02:24:01.691Z,37.63
2019-04-21T02:26:37.502Z,33.42
2019-04-21T02:29:08.638Z,33.73
2019-04-21T02:34:32.276Z,33.38
2019-04-21T02:37:05.209Z,35.00
2019-04-21T02:39:21.254Z,34.85
2019-04-21T02:41:55.873Z,35.40
2019-04-21T02:44:28.033Z,33.88
2019-04-21T02:47:21.196Z,35.05
2019-04-21T02:52:18.243Z,37.15
2019-04-21T03:00:10.032Z,33.45
2019-04-21T03:02:34.509Z,37.08
2019-04-21T03:05:21.076Z,41.23
2019-04-21T03:07:34.455Z,33.88
2019-04-21T03:10:12.541Z,33.55
2019-04-21T03:12:38.109Z,33.88
2019-04-21T03:20:19.562Z,33.78
2019-04-21T03:22:53.145Z,42.85
2019-04-21T03:25:33.898Z,34.13
2019-04-21T03:30:45.707Z,35.80
2019-04-21T03:38:03.938Z,34.58
2019-04-21T03:40:32.228Z,33.45
2019-04-21T03:45:49.111Z,32.53
2019-04-21T03:48:17.290Z,38.78
2019-04-21T03:50:50.875Z,33.25
2019-04-21T03:53:18.580Z,36.42
2019-04-21T03:55:58.694Z,34.92
2019-04-21T04:01:05.446Z,36.93
2019-04-21T04:04:00.788Z,37.50
2019-04-21T04:06:20.539Z,35.52
2019-04-21T04:11:39.769Z,34.15
2019-04-21T04:14:26.644Z,36.80
2019-04-21T04:17:06.139Z,36.05
2019-04-21T04:24:50.234Z,30.62
2019-04-21T04:27:20.949Z,34.60
2019-04-21T04:29:42.301Z,32.50
2019-04-21T04:32:16.949Z,33.02
2019-04-21T04:40:19.695Z,33.35
2019-04-21T04:53:34.673Z,26.40
2019-04-21T04:58:55.500Z,28.92
2019-04-21T05:01:14.167Z,30.57
2019-04-21T05:11:50.491Z,28.35
2019-04-21T05:16:48.411Z,26.52
2019-04-21T05:19:14.900Z,26.87
2019-04-21T05:24:10.776Z,25.40
2019-04-21T05:26:34.443Z,25.95
2019-04-21T05:29:05.330Z,28.57
2019-04-21T05:31:50.962Z,27.65
2019-04-21T05:34:21.944Z,25.05
2019-04-21T05:37:03.913Z,25.20
2019-04-21T05:39:36.215Z,24.50
2019-04-21T05:42:00.752Z,23.95
2019-04-21T05:47:35.505Z,24.75
2019-04-21T05:50:19.126Z,26.62
2019-04-21T05:52:53.552Z,23.90
2019-04-21T05:55:57.112Z,25.12
2019-04-21T05:58:31.595Z,26.62
2019-04-21T06:01:33.339Z,22.32
2019-04-21T06:04:05.554Z,24.18
2019-04-21T06:06:35.497Z,21.37
2019-04-21T06:09:15.748Z,18.17
2019-04-21T06:11:45.043Z,18.12
2019-04-21T06:14:14.438Z,17.92
2019-04-21T06:16:58.150Z,18.50
2019-04-21T06:19:31.158Z,22.25
2019-04-21T06:21:56.920Z,27.27
2019-04-21T06:24:32.608Z,25.57
2019-04-21T06:29:43.723Z,22.25
2019-04-21T06:32:46.142Z,20.88
2019-04-21T06:34:59.120Z,24.02
2019-04-21T06:42:48.675Z,25.00
2019-04-21T06:45:27.370Z,26.25
2019-04-21T06:48:04.657Z,24.60
2019-04-21T06:53:22.958Z,28.60
2019-04-21T06:55:51.667Z,26.48
2019-04-21T06:58:27.839Z,27.93
2019-04-21T07:00:57.669Z,26.52
2019-04-21T07:03:34.697Z,25.60
2019-04-21T07:06:09.464Z,24.63
2019-04-21T07:08:57.692Z,25.43
2019-04-21T07:11:18.741Z,28.77
2019-04-21T07:14:16.163Z,26.77
2019-04-21T07:16:33.423Z,27.52
2019-04-21T07:19:10.064Z,26.40
2019-04-21T07:21:43.402Z,27.98
2019-04-21T07:24:14.498Z,26.90
2019-04-21T07:26:44.747Z,29.92
2019-04-21T07:29:15.796Z,30.62
2019-04-21T07:31:54.157Z,28.05
2019-04-21T07:34:25.142Z,30.45
2019-04-21T07:39:27.148Z,27.00
2019-04-21T07:41:52.275Z,27.42
2019-04-21T07:44:29.119Z,26.77
2019-04-21T07:46:58.535Z,24.23
2019-04-21T07:49:59.011Z,27.17
2019-04-21T07:52:36.334Z,23.42
2019-04-21T07:57:36.649Z,26.17
2019-04-21T08:00:20.696Z,25.20
2019-04-21T08:02:40.420Z,25.52
2019-04-21T08:10:15.595Z,30.10
2019-04-21T08:12:48.083Z,36.35
2019-04-21T08:17:58.181Z,31.68
2019-04-21T08:20:24.060Z,35.95
2019-04-21T08:22:59.560Z,26.93
2019-04-21T08:25:58.969Z,28.62
2019-04-21T08:28:26.412Z,27.00
2019-04-21T08:30:55.489Z,26.65
2019-04-21T08:33:37.181Z,22.48
2019-04-21T08:36:12.974Z,24.65
2019-04-21T08:38:35.844Z,27.42
2019-04-21T08:46:09.709Z,26.75
2019-04-21T08:48:46.575Z,23.80
2019-04-21T08:53:47.553Z,21.70
2019-04-21T08:56:21.351Z,20.50
2019-04-21T09:01:43.034Z,23.22
2019-04-21T09:04:21.175Z,20.35
2019-04-21T09:07:05.325Z,22.50
2019-04-21T09:09:57.187Z,21.80
2019-04-21T09:12:14.998Z,22.60
2019-04-21T09:14:51.277Z,22.40
2019-04-21T09:17:28.556Z,23.67
2019-04-21T09:20:12.650Z,26.55
2019-04-21T09:22:35.851Z,27.95
2019-04-21T09:25:09.071Z,25.50
2019-04-21T09:27:39.242Z,28.17
2019-04-21T09:30:01.259Z,22.98
2019-04-21T09:32:32.862Z,21.35
2019-04-21T09:35:09.805Z,23.98
2019-04-21T09:44:45.459Z,20.15
2019-04-21T09:47:18.999Z,23.38
2019-04-21T09:49:49.432Z,23.42
2019-04-21T09:52:36.124Z,24.00
2019-04-21T09:55:07.275Z,23.77
2019-04-21T09:57:41.456Z,21.75
2019-04-21T10:00:10.793Z,25.37
2019-04-21T10:02:42.843Z,24.27
2019-04-21T10:05:09.947Z,31.87
2019-04-21T10:07:42.906Z,26.37
2019-04-21T10:10:13.245Z,28.42
2019-04-21T10:12:45.392Z,28.38
2019-04-21T10:15:16.567Z,31.62
2019-04-21T10:17:52.301Z,25.08
2019-04-21T10:20:24.404Z,28.00
2019-04-21T10:22:55.625Z,29.50
2019-04-21T10:25:26.551Z,26.25
2019-04-21T10:27:57.356Z,23.85
2019-04-21T10:30:28.725Z,26.65
2019-04-21T10:33:00.606Z,27.05
2019-04-21T10:35:32.684Z,26.05
2019-04-21T10:38:16.963Z,26.75
2019-04-21T10:40:37.291Z,24.52
2019-04-21T10:43:10.780Z,26.65
2019-04-21T10:45:40.970Z,29.10
2019-04-21T10:48:12.812Z,26.45
2019-04-21T10:50:43.453Z,24.63
2019-04-21T10:53:16.593Z,27.30
2019-04-21T10:56:00.393Z,24.40
2019-04-21T10:58:24.438Z,22.85
2019-04-21T11:00:57.838Z,23.92
2019-04-21T11:03:33.174Z,24.30
2019-04-21T11:08:44.019Z,22.90
2019-04-21T11:11:12.249Z,26.95
2019-04-21T11:13:44.379Z,25.90
2019-04-21T11:16:17.147Z,24.07
2019-04-21T11:18:48.521Z,25.25
2019-04-21T11:21:20.749Z,22.50
2019-04-21T11:23:52.201Z,21.82
2019-04-21T11:26:24.175Z,21.10
2019-04-21T11:28:56.721Z,22.30
2019-04-21T11:31:27.540Z,21.73
2019-04-21T11:33:58.289Z,21.07
2019-04-21T11:36:29.468Z,26.17
2019-04-21T11:39:21.023Z,25.75
2019-04-21T11:41:41.552Z,22.60
2019-04-21T11:44:12.523Z,25.43
2019-04-21T11:46:44.453Z,25.12
2019-04-21T11:49:15.812Z,25.05
2019-04-21T11:51:46.977Z,22.95
2019-04-21T11:54:19.055Z,26.30
2019-04-21T11:56:50.663Z,22.77
2019-04-21T11:59:21.759Z,27.13
2019-04-21T12:01:53.943Z,24.95
2019-04-21T12:04:25.445Z,25.23
2019-04-21T12:06:57.724Z,24.15
2019-04-21T12:09:29.309Z,26.35
2019-04-21T12:12:01.126Z,25.08
2019-04-21T12:14:32.121Z,25.02
2019-04-21T12:17:02.851Z,24.87
2019-04-21T12:19:34.725Z,24.50
2019-04-21T12:22:15.644Z,27.80
2019-04-21T12:24:39.639Z,30.15
2019-04-21T12:27:11.912Z,29.60
2019-04-21T12:29:44.044Z,31.07
2019-04-21T12:32:20.239Z,45.00
2019-04-21T12:34:52.169Z,45.48
2019-04-21T12:37:24.627Z,49.48
2019-04-21T12:39:56.746Z,43.48
2019-04-21T12:42:27.581Z,35.63
2019-04-21T12:44:59.345Z,32.70
2019-04-21T12:47:30.220Z,30.90
2019-04-21T12:50:02.602Z,27.07
2019-04-21T12:52:34.146Z,25.05
2019-04-21T12:55:05.806Z,26.33
2019-04-21T12:57:37.213Z,24.63
2019-04-21T13:00:11.269Z,22.95
2019-04-21T13:02:43.429Z,22.07
2019-04-21T13:05:15.709Z,20.15
2019-04-21T13:08:07.233Z,24.25
2019-04-21T13:10:38.298Z,22.55
2019-04-21T13:13:10.068Z,24.77
2019-04-21T13:15:41.134Z,22.15
2019-04-21T13:18:12.389Z,20.20
2019-04-21T13:20:44.364Z,23.15
2019-04-21T13:25:52.249Z,22.62
2019-04-21T13:28:30.318Z,19.25
2019-04-21T13:31:02.314Z,20.72
2019-04-21T13:33:36.035Z,22.20
2019-04-21T13:36:07.627Z,23.10
2019-04-21T13:38:57.214Z,20.70
2019-04-21T13:41:35.155Z,20.50
2019-04-21T13:43:52.949Z,21.40
2019-04-21T13:46:24.933Z,19.25
2019-04-21T13:48:55.950Z,19.87
2019-04-21T13:51:27.467Z,21.50
2019-04-21T13:53:59.457Z,19.35
2019-04-21T13:56:32.060Z,22.10
2019-04-21T13:59:02.688Z,22.45
2019-04-21T14:01:34.013Z,19.52
2019-04-21T14:04:05.316Z,19.12
2019-04-21T14:06:36.369Z,21.68
2019-04-21T14:09:09.606Z,20.75
2019-04-21T14:11:41.132Z,21.95
2019-04-21T14:14:12.450Z,22.10
2019-04-21T14:16:44.152Z,25.08
2019-04-21T14:19:15.593Z,22.67
2019-04-21T14:21:49.476Z,25.08
2019-04-21T14:24:19.119Z,25.70
2019-04-21T14:26:50.214Z,27.60
2019-04-21T14:29:21.756Z,27.90
2019-04-21T14:31:53.251Z,23.75
2019-04-21T14:34:24.177Z,26.07
2019-04-21T14:36:55.025Z,25.08
2019-04-21T14:39:26.408Z,29.07
2019-04-21T14:41:58.122Z,25.17
2019-04-21T14:44:29.167Z,30.25
2019-04-21T14:47:03.017Z,26.90
2019-04-21T14:49:39.425Z,30.95
2019-04-21T14:52:25.276Z,28.00
2019-04-21T14:54:58.551Z,26.27
2019-04-21T14:57:29.620Z,24.57
2019-04-21T15:00:02.898Z,26.12
2019-04-21T15:02:34.016Z,26.15
2019-04-21T15:05:09.533Z,25.85
2019-04-21T15:07:41.376Z,26.97
2019-04-21T15:10:33.461Z,28.65
2019-04-21T15:13:05.705Z,27.32
2019-04-21T15:15:38.047Z,27.42
2019-04-21T15:18:10.414Z,24.45
2019-04-21T15:20:42.447Z,24.77
2019-04-21T15:23:14.470Z,25.40
2019-04-21T15:25:46.051Z,25.43
2019-04-21T15:28:17.834Z,25.10
2019-04-21T15:30:50.286Z,24.30
2019-04-21T15:33:22.301Z,26.65
2019-04-21T15:35:53.208Z,25.08
2019-04-21T15:38:25.420Z,23.70
2019-04-21T15:41:00.742Z,24.75
2019-04-21T15:43:28.855Z,29.50
2019-04-21T15:46:00.651Z,24.50
2019-04-21T15:48:52.931Z,23.15
2019-04-21T15:51:23.976Z,24.07
2019-04-21T15:53:55.634Z,23.83
2019-04-21T15:56:28.883Z,23.92
2019-04-21T15:59:16.642Z,24.77
2019-04-21T16:01:50.653Z,23.67
2019-04-21T16:04:22.913Z,23.62
2019-04-21T16:06:55.365Z,26.20
2019-04-21T16:09:28.678Z,25.90
2019-04-21T16:11:59.882Z,24.80
2019-04-21T16:14:30.737Z,25.88
2019-04-21T16:17:01.513Z,26.55
2019-04-21T16:19:33.321Z,27.15
2019-04-21T16:22:06.426Z,23.77
2019-04-21T16:24:38.142Z,25.23
2019-04-21T16:27:11.096Z,25.08
2019-04-21T16:29:41.718Z,24.85
2019-04-21T16:32:14.678Z,24.63
2019-04-21T16:34:50.989Z,27.00
2019-04-21T16:37:17.447Z,32.08
2019-04-21T16:39:49.416Z,25.55
2019-04-21T16:42:20.482Z,26.10
2019-04-21T16:44:52.676Z,29.27
2019-04-21T16:47:26.108Z,27.65
2019-04-21T16:49:57.981Z,26.55
2019-04-21T16:52:47.710Z,34.05
2019-04-21T16:55:24.723Z,25.52
2019-04-21T16:58:09.221Z,26.97
2019-04-21T17:00:41.847Z,25.77
2019-04-21T17:03:04.372Z,26.25
2019-04-21T17:05:36.263Z,28.70
2019-04-21T17:08:08.113Z,26.65
2019-04-21T17:10:40.331Z,27.45
2019-04-21T17:13:32.053Z,32.65
2019-04-21T17:16:32.736Z,30.08
2019-04-21T17:18:50.203Z,28.80
2019-04-21T17:21:08.759Z,27.55
2019-04-21T17:23:40.709Z,31.77
2019-04-21T17:26:13.119Z,31.35
2019-04-21T17:28:44.986Z,27.73
2019-04-21T17:31:16.184Z,29.07
2019-04-21T17:33:48.432Z,28.12
2019-04-21T17:36:21.011Z,31.77
2019-04-21T17:38:52.277Z,31.25
2019-04-21T17:41:30.622Z,29.45
2019-04-21T17:43:56.181Z,27.17
2019-04-21T17:46:36.669Z,28.85
2019-04-21T17:48:59.162Z,34.90
2019-04-21T17:51:31.976Z,30.35
2019-04-21T17:54:13.925Z,27.50
2019-04-21T17:56:59.631Z,34.38
2019-04-21T17:59:41.516Z,29.95
2019-04-21T18:02:02.306Z,25.62
2019-04-21T18:04:33.439Z,26.17
2019-04-21T18:07:27.587Z,25.75
2019-04-21T18:12:31.295Z,27.95
2019-04-21T18:14:59.153Z,26.27
2019-04-21T18:17:20.606Z,27.85
2019-04-21T18:19:54.922Z,26.33
2019-04-21T18:22:46.924Z,26.48
2019-04-21T18:25:36.164Z,26.30
2019-04-21T18:27:58.720Z,25.60
2019-04-21T18:30:48.749Z,25.15
2019-04-21T18:33:25.069Z,27.27
2019-04-21T18:36:00.631Z,25.23
2019-04-21T18:38:54.810Z,28.15
2019-04-21T18:41:07.610Z,29.42
2019-04-21T18:44:19.089Z,25.08
2019-04-21T18:46:38.637Z,25.80
2019-04-21T18:49:00.612Z,29.87
2019-04-21T18:51:58.743Z,26.55
2019-04-21T18:54:37.743Z,28.98
2019-04-21T18:56:57.618Z,25.55
2019-04-21T18:59:31.079Z,28.30
2019-04-21T19:02:02.189Z,27.35
2019-04-21T19:04:30.075Z,29.00
2019-04-21T19:07:12.980Z,25.27
2019-04-21T19:10:10.032Z,24.55
2019-04-21T19:12:35.150Z,24.87
2019-04-21T19:14:56.290Z,24.20
2019-04-21T19:22:32.918Z,22.87
2019-04-21T19:25:08.383Z,26.10
2019-04-21T19:27:31.049Z,27.35
2019-04-21T19:30:17.687Z,25.80
2019-04-21T19:32:41.335Z,25.10
2019-04-21T19:34:59.631Z,25.68
2019-04-21T19:37:29.822Z,28.05
2019-04-21T19:40:12.161Z,24.67
2019-04-21T19:42:42.086Z,28.70
2019-04-21T19:45:17.644Z,24.77
2019-04-21T19:47:57.753Z,24.20
2019-04-21T19:50:33.533Z,24.63
2019-04-21T19:52:52.006Z,26.48
2019-04-21T19:55:14.253Z,24.30
2019-04-21T19:57:45.112Z,24.27
2019-04-21T20:00:17.528Z,25.40
2019-04-21T20:02:50.294Z,23.75
2019-04-21T20:05:32.704Z,25.23
2019-04-21T20:08:11.306Z,24.77
2019-04-21T20:10:44.410Z,22.90
2019-04-21T20:13:25.968Z,22.95
2019-04-21T20:15:54.029Z,23.07
2019-04-21T20:18:15.312Z,23.30
2019-04-21T20:20:35.227Z,25.17
2019-04-21T20:23:13.202Z,22.22
2019-04-21T20:25:45.702Z,21.85
2019-04-21T20:28:21.177Z,22.98
2019-04-21T20:31:03.602Z,28.25
2019-04-21T20:33:50.527Z,22.00
2019-04-21T20:36:12.321Z,24.37
2019-04-21T20:38:31.324Z,21.87
2019-04-21T20:41:03.458Z,21.42
2019-04-21T20:43:47.328Z,22.52
2019-04-21T20:46:13.684Z,22.77
2019-04-21T20:48:48.060Z,22.73
2019-04-21T20:51:38.941Z,22.05
2019-04-21T20:54:08.614Z,24.55
2019-04-21T20:56:45.324Z,22.20
2019-04-21T20:59:16.305Z,23.55
2019-04-21T21:01:49.507Z,21.27
2019-04-21T21:04:17.470Z,21.37
2019-04-21T21:06:52.568Z,23.87
2019-04-21T21:09:23.054Z,22.77
2019-04-21T21:12:11.450Z,24.65
2019-04-21T21:14:30.886Z,25.17
2019-04-21T21:17:06.509Z,23.77
2019-04-21T21:19:40.113Z,22.13
2019-04-21T21:21:59.151Z,27.58
2019-04-21T21:24:49.030Z,21.40
2019-04-21T21:27:14.195Z,22.67
2019-04-21T21:29:45.339Z,21.75
2019-04-21T21:32:29.164Z,21.60
2019-04-21T21:34:49.705Z,21.57
2019-04-21T21:39:56.909Z,23.47
2019-04-21T21:42:11.837Z,22.25
2019-04-21T21:44:50.445Z,22.05
2019-04-21T21:47:28.018Z,23.27
2019-04-21T21:49:57.711Z,27.75
2019-04-21T21:52:35.397Z,25.23
2019-04-21T21:54:51.892Z,21.73
2019-04-21T21:57:24.487Z,23.50
2019-04-21T22:00:17.121Z,23.65
2019-04-21T22:02:51.311Z,23.35
2019-04-21T22:05:25.470Z,24.80
2019-04-21T22:07:54.335Z,21.65
2019-04-21T22:10:25.451Z,22.55
2019-04-21T22:13:19.799Z,21.40
2019-04-21T22:15:56.467Z,23.55
2019-04-21T22:18:39.214Z,22.55
2019-04-21T22:21:09.062Z,23.10
2019-04-21T22:23:36.774Z,25.70
2019-04-21T22:25:57.653Z,21.68
2019-04-21T22:28:29.556Z,22.00
2019-04-21T22:31:01.057Z,23.65
2019-04-21T22:33:38.959Z,21.97
2019-04-21T22:36:18.515Z,27.20
2019-04-21T22:38:50.937Z,24.20
2019-04-21T22:41:19.011Z,23.05
2019-04-21T22:43:44.386Z,22.05
2019-04-21T22:46:15.390Z,23.18
2019-04-21T22:48:55.895Z,22.27
2019-04-21T22:51:42.973Z,21.25
2019-04-21T22:54:13.960Z,22.85
2019-04-21T22:56:53.998Z,26.35
2019-04-21T22:59:18.647Z,21.82
2019-04-21T23:01:49.917Z,23.73
2019-04-21T23:04:19.067Z,23.02
2019-04-21T23:06:56.740Z,22.45
2019-04-21T23:09:22.549Z,23.12
2019-04-21T23:11:56.082Z,25.10
2019-04-21T23:14:25.871Z,22.70
2019-04-21T23:17:14.871Z,22.90
2019-04-21T23:19:42.629Z,22.45
2019-04-21T23:22:16.215Z,22.35
2019-04-21T23:24:51.611Z,21.90
2019-04-21T23:27:15.504Z,21.45
2019-04-21T23:30:11.051Z,24.32
2019-04-21T23:32:23.558Z,23.35
2019-04-21T23:34:44.191Z,24.30
2019-04-21T23:37:20.253Z,23.50
2019-04-21T23:39:59.238Z,24.37
2019-04-21T23:42:31.126Z,22.22
2019-04-21T23:44:58.171Z,21.33
2019-04-21T23:47:42.082Z,22.30
2019-04-21T23:50:10.991Z,20.70
2019-04-21T23:52:35.329Z,22.50
2019-04-21T23:55:07.586Z,22.42
2019-04-21T23:57:43.098Z,21.12
